Time;durP1;ratioP1;P1;durP2;ratioP2;P2;SDS_P1;SDS_P2;PMS_P1;PMS_P2;Temp;Humidity;BMP_temperature;BMP_pressure;BME280_temperature;BME280_humidity;BME280_pressure;Samples;Min_cycle;Max_cycle;Signal;HPM_P1;HPM_P2
2022/04/29 00:02:16;;;;;;;1.05;0.38;;;;;;;7.01;72.31;103032.16;10539856;28;20578;-78
2022/04/29 00:07:18;;;;;;;0.20;0.20;;;;;;;6.99;72.51;103029.50;10522429;28;20062;-78
2022/04/29 00:12:20;;;;;;;3.40;3.00;;;;;;;6.98;73.00;103034.50;10540060;28;20435;-78
2022/04/29 00:17:22;;;;;;;2.38;1.92;;;;;;;6.85;73.19;103031.81;10539396;28;20139;-73
2022/04/29 00:22:23;;;;;;;0.00;0.00;;;;;;;6.88;73.48;103029.47;10538131;28;20052;-73
2022/04/29 00:27:25;;;;;;;0.30;0.30;;;;;;;6.72;73.75;103027.44;10538878;28;20491;-73
2022/04/29 00:32:27;;;;;;;0.43;0.43;;;;;;;6.69;73.10;103037.44;10538049;28;20125;-73
2022/04/29 00:37:28;;;;;;;1.13;0.63;;;;;;;6.76;73.51;103020.09;10522112;28;20473;-73
2022/04/29 00:42:30;;;;;;;4.90;1.60;;;;;;;6.52;74.09;103029.34;10521152;28;20044;-74
2022/04/29 00:47:32;;;;;;;0.00;0.00;;;;;;;6.59;74.62;103016.22;10521021;28;20515;-73
2022/04/29 00:52:36;;;;;;;1.08;0.70;;;;;;;6.50;74.73;103020.66;10538807;28;20097;-73
2022/04/29 00:58:02;;;;;;;0.80;0.20;;;;;;;6.50;74.38;103005.31;10538446;28;20044;-73
2022/04/29 01:03:05;;;;;;;0.03;0.03;;;;;;;6.45;74.34;103001.47;10519172;28;20097;-74
2022/04/29 01:08:08;;;;;;;0.20;0.10;;;;;;;6.36;74.85;102991.44;10520417;28;20507;-73
2022/04/29 01:13:09;;;;;;;0.00;0.00;;;;;;;6.37;74.06;102992.34;10532919;28;20462;-72
2022/04/29 01:18:13;;;;;;;0.00;0.00;;;;;;;6.30;74.59;102985.84;10538302;28;20104;-73
2022/04/29 01:23:15;;;;;;;0.15;0.15;;;;;;;6.18;75.74;102994.34;10533068;28;20034;-72
2022/04/29 01:28:17;;;;;;;0.00;0.00;;;;;;;6.36;74.87;102988.88;10538016;28;20105;-73
2022/04/29 01:33:21;;;;;;;0.50;0.50;;;;;;;6.23;75.30;102984.47;10535964;28;20040;-73
2022/04/29 01:38:22;;;;;;;0.00;0.00;;;;;;;6.20;74.40;102976.56;10554007;28;20048;-74
2022/04/29 01:43:26;;;;;;;0.00;0.00;;;;;;;6.16;75.95;102979.66;10535704;28;20040;-74
2022/04/29 01:48:28;;;;;;;0.25;0.13;;;;;;;6.02;75.50;102979.47;10525781;28;20040;-73
2022/04/29 01:53:53;;;;;;;1.25;1.08;;;;;;;6.08;76.16;102975.59;10518062;28;20142;-78
2022/04/29 01:58:56;;;;;;;0.00;0.00;;;;;;;6.08;76.00;102973.03;10548211;28;20507;-78
2022/04/29 02:04:01;;;;;;;1.27;0.63;;;;;;;6.03;76.19;102960.78;10517514;28;20036;-78
2022/04/29 02:09:06;;;;;;;0.00;0.00;;;;;;;6.10;75.57;102966.38;10536437;28;20048;-79
2022/04/29 02:14:09;;;;;;;0.00;0.00;;;;;;;6.03;76.20;102970.16;10551063;28;20075;-79
2022/04/29 02:19:30;;;;;;;0.00;0.00;;;;;;;5.98;76.08;102967.19;10551412;28;20442;-78
2022/04/29 02:24:32;;;;;;;0.00;0.00;;;;;;;6.07;75.70;102959.38;10539970;28;20051;-78
2022/04/29 02:29:35;;;;;;;0.22;0.22;;;;;;;5.87;76.00;102968.00;10551082;28;20556;-78
2022/04/29 02:34:45;;;;;;;0.45;0.45;;;;;;;5.88;76.49;102974.91;10550225;28;20439;-79
2022/04/29 02:39:48;;;;;;;0.05;0.05;;;;;;;5.90;76.84;102957.13;10533427;28;20415;-79
2022/04/29 02:44:50;;;;;;;0.15;0.15;;;;;;;5.84;76.84;102958.44;10516011;28;20068;-78
2022/04/29 02:49:55;;;;;;;0.00;0.00;;;;;;;5.91;77.01;102959.81;10533053;28;20051;-78
2022/04/29 02:54:57;;;;;;;0.00;0.00;;;;;;;5.80;77.02;102958.06;10532685;28;20105;-77
2022/04/29 03:00:31;;;;;;;0.00;0.00;;;;;;;5.81;76.96;102947.94;10526957;28;20066;-78
2022/04/29 03:05:32;;;;;;;3.83;1.20;;;;;;;5.65;77.24;102939.88;10523162;28;20040;-78
2022/04/29 03:10:36;;;;;;;0.30;0.25;;;;;;;5.67;77.15;102941.78;10515721;28;20052;-78
2022/04/29 03:15:37;;;;;;;0.13;0.13;;;;;;;5.56;77.60;102953.72;10525267;28;20052;-78
2022/04/29 03:20:41;;;;;;;0.00;0.00;;;;;;;5.63;77.96;102951.63;10532390;28;20059;-78
2022/04/29 03:25:43;;;;;;;0.00;0.00;;;;;;;5.67;77.48;102939.22;10522849;28;20495;-78
2022/04/29 03:30:45;;;;;;;0.00;0.00;;;;;;;5.67;77.61;102939.22;10539758;28;20568;-78
2022/04/29 03:35:50;;;;;;;0.35;0.35;;;;;;;5.60;77.94;102934.38;10532019;28;20036;-78
2022/04/29 03:40:58;;;;;;;0.00;0.00;;;;;;;5.74;77.48;102927.78;10539037;28;20488;-78
2022/04/29 03:46:02;;;;;;;0.00;0.00;;;;;;;5.69;78.34;102922.34;10548864;28;20131;-78
2022/04/29 03:51:12;;;;;;;0.55;0.47;;;;;;;5.63;78.80;102924.38;10531566;28;20048;-78
2022/04/29 03:56:15;;;;;;;0.28;0.28;;;;;;;5.61;78.75;102927.59;10549335;28;20494;-78
2022/04/29 04:01:17;;;;;;;0.10;0.10;;;;;;;5.64;78.33;102915.94;10532074;28;20465;-78
2022/04/29 04:06:49;;;;;;;0.00;0.00;;;;;;;5.65;78.52;102915.19;10526596;28;20086;-78
2022/04/29 04:11:56;;;;;;;0.00;0.00;;;;;;;5.91;78.24;102938.44;10530980;28;20127;-78
2022/04/29 04:17:24;;;;;;;1.80;1.63;;;;;;;5.60;78.69;102926.72;10530264;28;20055;-78
2022/04/29 04:22:32;;;;;;;0.30;0.30;;;;;;;5.62;78.52;102932.81;10513761;28;20036;-78
2022/04/29 04:27:34;;;;;;;0.00;0.00;;;;;;;5.79;79.08;102929.06;10531397;28;20051;-78
2022/04/29 04:32:37;;;;;;;0.40;0.40;;;;;;;5.63;78.49;102934.63;10530166;28;20048;-78
2022/04/29 04:37:39;;;;;;;0.00;0.00;;;;;;;5.82;78.06;102921.59;10536174;28;20043;-78
2022/04/29 04:42:46;;;;;;;0.47;0.20;;;;;;;5.93;77.34;102917.31;10537506;28;20068;-77
2022/04/29 04:47:59;;;;;;;0.25;0.25;;;;;;;5.91;77.73;102907.75;10538433;28;20530;-78
2022/04/29 04:53:18;;;;;;;1.98;0.95;;;;;;;5.82;78.03;102907.94;10554175;28;20052;-78
2022/04/29 04:58:19;;;;;;;0.80;0.80;;;;;;;5.84;78.24;102916.63;10536163;28;20067;-78
2022/04/29 05:03:21;;;;;;;0.52;0.52;;;;;;;6.05;77.23;102912.28;10536833;28;20093;-78
2022/04/29 05:08:42;;;;;;;0.30;0.30;;;;;;;5.97;77.97;102916.78;10565243;28;20047;-78
2022/04/29 05:13:43;;;;;;;0.30;0.30;;;;;;;6.07;77.65;102905.63;10556176;28;20217;-78
2022/04/29 05:18:45;;;;;;;0.32;0.32;;;;;;;6.20;77.61;102902.34;10557343;28;20376;-78
2022/04/29 05:23:49;;;;;;;0.45;0.38;;;;;;;6.19;78.25;102916.78;10531196;28;20043;-78
2022/04/29 05:29:14;;;;;;;0.70;0.40;;;;;;;6.31;77.63;102914.28;10569269;28;20059;-78
2022/04/29 05:34:34;;;;;;;0.00;0.00;;;;;;;6.49;77.29;102895.97;10579368;28;20039;-78
2022/04/29 05:45:15;;;;;;;0.00;0.00;;;;;;;6.67;76.72;102916.94;10537692;28;20047;-78
2022/04/29 05:50:16;;;;;;;0.95;0.30;;;;;;;6.78;77.63;102916.03;10536347;28;20040;-79
2022/04/29 05:55:18;;;;;;;1.35;0.77;;;;;;;6.48;76.82;102925.78;10535553;28;20498;-79
2022/04/29 06:00:40;;;;;;;4.90;2.10;;;;;;;6.33;77.69;102920.41;10535203;28;20491;-79
2022/04/29 06:05:43;;;;;;;0.30;0.25;;;;;;;6.75;76.98;102920.03;10517861;28;20052;-78
2022/04/29 06:10:46;;;;;;;0.00;0.00;;;;;;;7.03;75.79;102922.09;10517913;28;20056;-77
2022/04/29 06:15:50;;;;;;;0.13;0.13;;;;;;;6.96;75.83;102934.44;10518372;28;20048;-78
2022/04/29 06:21:18;;;;;;;0.85;0.85;;;;;;;6.90;75.55;102935.66;10534899;28;20078;-78
2022/04/29 06:26:28;;;;;;;0.22;0.22;;;;;;;7.17;75.67;102925.63;10559247;28;20391;-78
2022/04/29 06:31:31;;;;;;;2.75;2.40;;;;;;;6.98;75.85;102929.44;10557731;28;20039;-78
2022/04/29 06:36:55;;;;;;;0.00;0.00;;;;;;;7.65;74.58;102931.59;10576456;28;20122;-78
2022/04/29 06:41:57;;;;;;;0.70;0.70;;;;;;;7.36;75.26;102930.41;10544793;28;20044;-78
2022/04/29 06:47:34;;;;;;;0.80;0.80;;;;;;;7.26;76.34;102921.19;10507183;28;20048;-77
2022/04/29 06:53:04;;;;;;;0.00;0.00;;;;;;;7.91;73.68;102929.19;10518228;28;20558;-77
2022/04/29 06:58:09;;;;;;;0.60;0.40;;;;;;;7.77;74.31;102932.47;10555518;28;20040;-77
2022/04/29 07:03:12;;;;;;;0.00;0.00;;;;;;;7.94;73.94;102931.97;10538687;28;20035;-78
2022/04/29 07:08:15;;;;;;;0.00;0.00;;;;;;;8.43;73.87;102930.97;10527848;28;20486;-78
2022/04/29 07:13:36;;;;;;;0.10;0.10;;;;;;;8.29;73.58;102936.84;10533555;28;20040;-77
2022/04/29 07:18:39;;;;;;;0.85;0.70;;;;;;;8.60;72.36;102941.53;10513274;28;20044;-78
2022/04/29 07:23:41;;;;;;;0.32;0.32;;;;;;;8.77;72.44;102935.81;10517724;28;20044;-77
2022/04/29 07:28:44;;;;;;;0.20;0.20;;;;;;;8.75;72.30;102933.94;10513543;28;20051;-77
2022/04/29 07:33:52;;;;;;;0.25;0.25;;;;;;;8.87;72.04;102927.94;10521513;28;20383;-78
2022/04/29 07:44:31;;;;;;;2.45;1.35;;;;;;;8.98;71.55;102933.75;10529106;28;20056;-77
2022/04/29 07:49:33;;;;;;;0.10;0.10;;;;;;;9.56;71.81;102933.13;10524873;28;20590;-77
2022/04/29 07:54:35;;;;;;;0.00;0.00;;;;;;;9.81;68.82;102930.38;10520066;28;20083;-78
2022/04/29 07:59:37;;;;;;;0.00;0.00;;;;;;;10.36;68.38;102931.97;10529604;28;20052;-78
2022/04/29 08:04:50;;;;;;;1.92;1.25;;;;;;;10.48;66.31;102927.56;10519771;28;20055;-79
2022/04/29 08:09:52;;;;;;;0.10;0.10;;;;;;;10.96;66.37;102932.00;10531508;28;20101;-79
2022/04/29 08:14:54;;;;;;;0.00;0.00;;;;;;;11.00;66.97;102933.94;10531351;28;20047;-77
2022/04/29 08:20:16;;;;;;;2.63;1.33;;;;;;;10.07;68.65;102943.97;10537142;28;20051;-78
2022/04/29 08:25:20;;;;;;;0.00;0.00;;;;;;;11.06;64.92;102931.69;10534583;28;20109;-77
2022/04/29 08:30:23;;;;;;;1.52;0.93;;;;;;;10.35;67.75;102945.63;10551943;28;20039;-77
2022/04/29 08:35:26;;;;;;;0.10;0.10;;;;;;;11.60;65.40;102941.53;10541981;28;20607;-78
2022/04/29 08:40:28;;;;;;;8.73;2.03;;;;;;;10.73;65.35;102949.63;10550135;28;20040;-79
2022/04/29 08:45:30;;;;;;;1.25;0.98;;;;;;;11.13;67.41;102944.97;10533670;28;20047;-77
2022/04/29 08:50:38;;;;;;;0.73;0.63;;;;;;;10.57;66.37;102949.50;10536067;28;20072;-78
2022/04/29 09:01:04;;;;;;;5.05;2.35;;;;;;;10.91;63.57;102954.03;10539018;28;20551;-79
2022/04/29 09:06:06;;;;;;;1.65;0.90;;;;;;;11.40;63.80;102936.19;10534442;28;20475;-78
2022/04/29 09:11:09;;;;;;;6.18;1.73;;;;;;;11.01;63.69;102934.84;10535532;28;20074;-78
2022/04/29 09:16:12;;;;;;;6.50;2.28;;;;;;;10.86;63.25;102946.06;10536500;28;20044;-79
2022/04/29 09:21:22;;;;;;;1.45;1.05;;;;;;;11.22;61.42;102936.06;10533394;28;20054;-77
2022/04/29 09:26:35;;;;;;;11.23;2.90;;;;;;;11.55;61.20;102930.94;10534703;28;20048;-78
2022/04/29 09:32:03;;;;;;;1.90;1.17;;;;;;;12.22;61.29;102929.34;10506655;28;20044;-79
2022/04/29 09:37:27;;;;;;;3.85;1.80;;;;;;;12.09;59.04;102914.88;10516353;28;20072;-78
2022/04/29 09:42:41;;;;;;;2.63;1.15;;;;;;;13.09;57.77;102916.38;10516710;28;20143;-78
2022/04/29 09:47:55;;;;;;;9.00;4.15;;;;;;;11.89;58.22;102930.19;10536366;28;20043;-80
2022/04/29 09:52:56;;;;;;;3.25;2.08;;;;;;;12.69;60.95;102936.03;10533661;28;20055;-79
2022/04/29 09:58:00;;;;;;;4.30;2.50;;;;;;;12.46;59.91;102926.22;10532815;28;20394;-79
2022/04/29 10:03:03;;;;;;;0.00;0.00;;;;;;;14.26;57.82;102910.44;10534527;28;20047;-77
2022/04/29 10:08:06;;;;;;;5.65;2.63;;;;;;;12.60;59.87;102919.16;10534622;28;20043;-79
2022/04/29 10:13:09;;;;;;;1.95;1.52;;;;;;;12.48;60.02;102919.41;10533264;28;20271;-78
2022/04/29 10:24:05;;;;;;;1.23;1.13;;;;;;;14.38;57.02;102912.66;10538386;28;20129;-78
2022/04/29 10:29:18;;;;;;;0.13;0.13;;;;;;;15.67;53.77;102907.38;10533533;28;20052;-78
2022/04/29 10:34:55;;;;;;;6.57;2.17;;;;;;;13.66;57.66;102904.34;10536912;28;20035;-78
2022/04/29 10:40:35;;;;;;;1.52;1.00;;;;;;;13.25;57.27;102899.88;10548273;28;20043;-79
2022/04/29 10:46:03;;;;;;;1.08;0.98;;;;;;;13.71;57.54;102897.66;10563114;28;20031;-80
2022/04/29 10:51:28;;;;;;;;;;;;;;;13.84;55.04;102899.09;10556333;28;20046;-78
2022/04/29 10:56:59;;;;;;;1.73;1.45;;;;;;;13.59;54.54;102897.97;10547358;28;19927;-79
2022/04/29 11:02:07;;;;;;;8.48;3.08;;;;;;;12.96;54.63;102894.22;10556739;28;20777;-78
2022/04/29 11:07:34;;;;;;;0.20;0.20;;;;;;;14.14;52.90;102889.16;10538257;28;20048;-78
2022/04/29 11:12:41;;;;;;;2.88;1.50;;;;;;;13.55;55.28;102886.59;10557446;28;20426;-78
2022/04/29 11:18:25;;;;;;;2.25;1.38;;;;;;;13.76;56.18;102890.97;10556940;28;20129;-78
2022/04/29 11:28:53;;;;;;;5.43;2.35;;;;;;;13.32;53.52;102876.03;10565956;28;20494;-78
2022/04/29 11:34:08;;;;;;;1.17;0.65;;;;;;;13.67;55.80;102862.97;10546701;28;20431;-77
2022/04/29 11:39:18;;;;;;;0.00;0.00;;;;;;;14.02;54.65;102860.16;10535499;28;20457;-77
2022/04/29 11:44:34;;;;;;;1.27;0.98;;;;;;;13.64;55.52;102866.31;10516278;28;20453;-80
2022/04/29 11:49:36;;;;;;;3.60;1.73;;;;;;;13.08;55.85;102862.84;10563172;28;20058;-81
2022/04/29 11:54:48;;;;;;;10.48;2.65;;;;;;;13.11;54.30;102870.75;10553047;28;20476;-79
2022/04/29 11:59:50;;;;;;;3.00;1.83;;;;;;;13.33;57.71;102870.06;10553412;28;20063;-80
2022/04/29 12:05:01;;;;;;;2.27;1.93;;;;;;;13.77;54.00;102861.66;10544972;28;20047;-79
2022/04/29 12:10:22;;;;;;;3.58;1.63;;;;;;;13.44;52.62;102867.13;10539958;28;20506;-75
2022/04/29 12:15:32;;;;;;;1.75;1.17;;;;;;;13.62;52.48;102865.34;10540709;28;20047;-75
2022/04/29 12:20:34;;;;;;;7.18;0.80;;;;;;;13.74;52.90;102864.09;10542446;28;20442;-74
2022/04/29 12:25:47;;;;;;;0.75;0.60;;;;;;;13.64;52.93;102861.13;10540227;28;20052;-76
2022/04/29 12:36:18;;;;;;;6.07;2.45;;;;;;;13.50;52.47;102846.69;10570236;28;20510;-74
2022/04/29 12:41:27;;;;;;;2.70;1.85;;;;;;;13.37;54.31;102854.63;10554850;28;20048;-76
2022/04/29 12:46:30;;;;;;;0.35;0.35;;;;;;;13.30;53.43;102849.19;10540053;28;20040;-74
2022/04/29 12:51:33;;;;;;;2.13;1.27;;;;;;;13.27;51.91;102837.81;10540594;28;20050;-75
2022/04/29 12:56:36;;;;;;;2.75;1.75;;;;;;;13.16;51.66;102845.09;10540132;28;20043;-76
2022/04/29 13:01:39;;;;;;;1.65;1.02;;;;;;;13.42;52.79;102837.66;10556665;28;20558;-75
2022/04/29 13:06:50;;;;;;;0.60;0.25;;;;;;;13.52;52.80;102824.31;10550658;28;20056;-75
2022/04/29 13:11:52;;;;;;;4.07;2.42;;;;;;;13.18;52.37;102823.63;10553423;28;20052;-75
2022/04/29 13:17:13;;;;;;;1.85;1.50;;;;;;;13.58;50.88;102822.00;10513155;28;20419;-77
2022/04/29 13:22:14;;;;;;;4.35;2.55;;;;;;;13.35;50.37;102805.41;10537224;28;20414;-75
2022/04/29 13:27:19;;;;;;;3.78;2.40;;;;;;;13.15;50.38;102810.56;10561697;28;20036;-75
2022/04/29 13:32:21;;;;;;;2.10;1.20;;;;;;;13.33;49.72;102799.25;10564352;28;20047;-76
2022/04/29 13:37:23;;;;;;;3.13;1.55;;;;;;;13.25;50.38;102806.69;10567077;28;20043;-76
2022/04/29 13:42:26;;;;;;;5.07;2.58;;;;;;;13.32;50.26;102795.78;10554046;28;20043;-75
2022/04/29 13:47:32;;;;;;;3.40;2.10;;;;;;;13.88;48.69;102790.47;10577064;28;20054;-74
2022/04/29 13:57:54;;;;;;;2.38;1.48;;;;;;;13.85;49.46;102787.75;10550926;28;20044;-74
2022/04/29 14:02:58;;;;;;;2.72;1.25;;;;;;;14.24;48.70;102779.88;10550368;28;20081;-74
2022/04/29 14:08:00;;;;;;;0.30;0.30;;;;;;;14.46;48.00;102783.31;10536717;28;20133;-74
2022/04/29 14:13:04;;;;;;;6.80;2.47;;;;;;;13.90;49.28;102791.41;10566871;28;20043;-75
2022/04/29 14:18:12;;;;;;;3.28;2.28;;;;;;;14.91;51.54;102775.59;10558096;28;20446;-75
2022/04/29 14:23:13;;;;;;;0.25;0.20;;;;;;;14.71;50.30;102769.66;10547732;28;20064;-75
2022/04/29 14:28:17;;;;;;;2.08;1.40;;;;;;;14.57;49.17;102766.47;10539537;28;20102;-75
2022/04/29 14:33:19;;;;;;;4.32;2.33;;;;;;;14.53;50.64;102751.63;10560097;28;20039;-75
2022/04/29 14:38:20;;;;;;;8.27;3.30;;;;;;;14.04;49.06;102752.22;10575050;28;20040;-75
2022/04/29 14:43:27;;;;;;;0.40;0.38;;;;;;;14.47;52.83;102742.72;10538165;28;20040;-75
2022/04/29 14:48:31;;;;;;;1.10;0.75;;;;;;;14.40;48.93;102741.59;10535620;28;20047;-76
2022/04/29 14:53:35;;;;;;;4.05;2.03;;;;;;;13.55;50.81;102735.53;10537581;28;20039;-76
2022/04/29 14:58:36;;;;;;;1.13;1.02;;;;;;;13.94;50.81;102746.69;10517786;28;20036;-76
2022/04/29 15:03:38;;;;;;;4.78;2.90;;;;;;;13.44;50.95;102748.88;10533790;28;20044;-77
2022/04/29 15:08:41;;;;;;;3.92;2.10;;;;;;;13.68;51.23;102744.69;10561609;28;20414;-76
2022/04/29 15:19:03;;;;;;;;;;;;;;;13.81;50.49;102739.22;10537808;28;20046;-74
2022/04/29 15:24:05;;;;;;;1.05;0.70;;;;;;;13.84;50.20;102744.53;10553645;28;19927;-77
2022/04/29 15:29:15;;;;;;;1.42;1.13;;;;;;;13.35;50.44;102739.81;10544489;28;20076;-77
2022/04/29 15:34:42;;;;;;;0.40;0.30;;;;;;;13.64;51.53;102741.97;10553658;28;20510;-76
2022/04/29 15:39:43;;;;;;;0.10;0.10;;;;;;;13.76;49.82;102738.13;10567991;28;20055;-77
2022/04/29 15:44:45;;;;;;;1.80;0.90;;;;;;;13.70;51.35;102740.47;10559578;28;20152;-77
2022/04/29 15:49:49;;;;;;;3.38;1.63;;;;;;;13.31;50.32;102742.25;10559521;28;20047;-79
2022/04/29 15:54:51;;;;;;;5.78;2.10;;;;;;;13.13;51.44;102751.78;10519486;28;20047;-79
2022/04/29 15:59:53;;;;;;;2.90;1.02;;;;;;;13.07;51.61;102746.34;10535468;28;20267;-76
2022/04/29 16:04:54;;;;;;;1.45;1.08;;;;;;;13.09;52.23;102744.69;10544580;28;20101;-76
2022/04/29 16:09:56;;;;;;;2.03;1.70;;;;;;;12.81;52.14;102744.31;10562821;28;20096;-76
2022/04/29 16:14:58;;;;;;;5.38;2.42;;;;;;;12.76;51.80;102744.94;10569064;28;20395;-76
2022/04/29 16:25:35;;;;;;;0.00;0.00;;;;;;;12.98;52.64;102747.69;10539233;28;20036;-77
2022/04/29 16:30:39;;;;;;;1.48;0.60;;;;;;;12.64;51.60;102743.53;10516277;28;20101;-76
2022/04/29 16:35:43;;;;;;;1.38;0.88;;;;;;;12.50;51.85;102739.41;10564549;28;20070;-76
2022/04/29 16:40:45;;;;;;;2.67;1.30;;;;;;;12.61;52.72;102740.81;10556559;28;20075;-81
2022/04/29 16:45:47;;;;;;;3.05;2.08;;;;;;;12.33;53.29;102739.50;10539299;28;20036;-80
2022/04/29 16:50:49;;;;;;;1.77;1.33;;;;;;;12.38;53.50;102734.53;10553214;28;20488;-80
2022/04/29 16:55:50;;;;;;;6.97;2.60;;;;;;;12.01;54.01;102733.66;10580047;28;20431;-80
2022/04/29 17:00:52;;;;;;;2.05;1.25;;;;;;;11.87;54.81;102732.94;10571232;28;20047;-82
2022/04/29 17:05:54;;;;;;;2.88;1.35;;;;;;;11.85;54.60;102723.34;10570693;28;20040;-81
2022/04/29 17:10:57;;;;;;;1.95;1.58;;;;;;;11.78;55.52;102734.16;10552567;28;20056;-80
2022/04/29 17:16:00;;;;;;;1.70;1.20;;;;;;;11.77;55.37;102732.41;10561515;28;20405;-80
2022/04/29 17:21:01;;;;;;;1.27;1.00;;;;;;;11.61;55.14;102734.19;10519892;28;20064;-81
2022/04/29 17:26:05;;;;;;;3.08;0.75;;;;;;;11.72;55.07;102740.81;10538200;28;20109;-81
2022/04/29 17:31:06;;;;;;;0.93;0.50;;;;;;;11.73;56.66;102734.81;10536036;28;20449;-80
2022/04/29 17:36:08;;;;;;;0.32;0.30;;;;;;;11.64;54.67;102736.94;10560401;28;20044;-81
2022/04/29 17:46:33;;;;;;;0.05;0.03;;;;;;;11.53;54.81;102727.75;10540372;28;20127;-79
2022/04/29 17:51:35;;;;;;;2.63;1.85;;;;;;;11.26;54.76;102735.84;10567491;28;20145;-80
2022/04/29 17:56:37;;;;;;;0.00;0.00;;;;;;;11.56;55.62;102736.53;10568592;28;20040;-80
2022/04/29 18:01:39;;;;;;;1.45;0.82;;;;;;;11.32;55.21;102736.16;10549935;28;20048;-80
2022/04/29 18:06:41;;;;;;;7.93;1.25;;;;;;;11.16;54.65;102746.47;10552640;28;20105;-79
2022/04/29 18:11:42;;;;;;;1.65;0.80;;;;;;;11.26;54.45;102746.16;10564653;28;20049;-80
2022/04/29 18:16:44;;;;;;;0.28;0.28;;;;;;;11.25;55.45;102740.09;10573758;28;20399;-80
2022/04/29 18:21:46;;;;;;;2.75;1.35;;;;;;;11.05;55.08;102745.91;10534075;28;20052;-79
2022/04/29 18:26:47;;;;;;;2.70;1.48;;;;;;;10.82;54.91;102753.28;10533931;28;20437;-80
2022/04/29 18:31:49;;;;;;;1.80;0.98;;;;;;;10.76;54.64;102761.56;10514948;28;20095;-80
2022/04/29 18:36:51;;;;;;;5.32;1.95;;;;;;;10.77;55.52;102770.22;10532745;28;20059;-80
2022/04/29 18:42:01;;;;;;;1.35;0.40;;;;;;;10.59;56.38;102770.06;10533969;28;20086;-80
2022/04/29 18:47:06;;;;;;;0.17;0.17;;;;;;;10.34;56.49;102778.97;10534503;28;20071;-80
2022/04/29 18:52:10;;;;;;;1.42;0.77;;;;;;;10.18;57.01;102784.03;10534495;28;20048;-80
2022/04/29 18:57:12;;;;;;;2.58;1.33;;;;;;;10.00;57.38;102792.47;10534570;28;20040;-80
2022/04/29 19:02:13;;;;;;;4.47;1.25;;;;;;;9.84;57.96;102807.03;10534523;28;20091;-81
2022/04/29 19:07:15;;;;;;;1.98;1.38;;;;;;;9.73;58.50;102799.44;10534163;28;20032;-81
2022/04/29 19:12:17;;;;;;;0.65;0.57;;;;;;;9.62;59.32;102809.09;10532978;28;20056;-80
2022/04/29 19:17:24;;;;;;;0.17;0.17;;;;;;;9.34;61.04;102812.56;10540534;28;20046;-80
2022/04/29 19:22:25;;;;;;;2.10;1.48;;;;;;;9.37;60.68;102817.88;10563442;28;20048;-81
2022/04/29 19:27:27;;;;;;;6.70;2.42;;;;;;;9.26;60.71;102824.06;10562447;28;20501;-81
2022/04/29 19:32:29;;;;;;;2.63;1.52;;;;;;;9.10;61.40;102825.69;10565571;28;20498;-80
2022/04/29 19:37:30;;;;;;;0.15;0.10;;;;;;;9.10;61.89;102830.81;10522629;28;20518;-80
2022/04/29 19:42:35;;;;;;;0.00;0.00;;;;;;;8.89;62.89;102833.81;10533121;28;20456;-80
2022/04/29 19:47:37;;;;;;;4.65;1.40;;;;;;;8.81;62.66;102840.16;10533320;28;20068;-80
2022/04/29 19:52:39;;;;;;;5.13;1.70;;;;;;;8.72;63.15;102839.53;10514851;28;20048;-80
2022/04/29 20:08:41;;;;;;;;;;;;;;;8.51;63.29;102837.38;10539097;28;20495;-81
2022/04/29 20:13:43;;;;;;;0.05;0.05;;;;;;;8.29;64.36;102847.84;10539467;28;19928;-80
2022/04/29 20:18:46;;;;;;;0.30;0.30;;;;;;;8.23;64.89;102868.00;10540987;28;20564;-80
2022/04/29 20:23:51;;;;;;;0.00;0.00;;;;;;;8.24;64.53;102862.94;10539719;28;20479;-80
2022/04/29 20:28:55;;;;;;;0.00;0.00;;;;;;;8.07;65.53;102868.66;10540373;28;20044;-80
2022/04/29 20:33:56;;;;;;;0.43;0.43;;;;;;;7.98;65.85;102870.56;10539791;28;20052;-80
2022/04/29 20:38:58;;;;;;;0.63;0.63;;;;;;;7.94;65.73;102872.03;10539978;28;20051;-80
2022/04/29 20:44:01;;;;;;;0.65;0.57;;;;;;;7.74;66.49;102878.38;10538997;28;20085;-80
2022/04/29 20:49:04;;;;;;;0.00;0.00;;;;;;;7.60;67.18;102878.31;10538973;28;20040;-80
2022/04/29 20:54:05;;;;;;;1.45;0.63;;;;;;;7.74;67.58;102884.38;10521915;28;20419;-81
2022/04/29 20:59:07;;;;;;;0.00;0.00;;;;;;;7.71;68.02;102878.13;10539442;28;20097;-80
2022/04/29 21:04:08;;;;;;;0.20;0.20;;;;;;;7.53;68.21;102876.09;10538670;28;20097;-80
2022/04/29 21:09:11;;;;;;;0.50;0.47;;;;;;;7.60;67.88;102875.75;10539425;28;20445;-81
2022/04/29 21:14:13;;;;;;;0.28;0.28;;;;;;;7.52;68.15;102883.69;10519789;28;20083;-81
2022/04/29 21:19:18;;;;;;;0.13;0.13;;;;;;;7.56;68.73;102877.97;10535572;28;20048;-80
2022/04/29 21:24:20;;;;;;;1.73;1.17;;;;;;;7.57;68.58;102872.94;10541885;28;20083;-81
2022/04/29 21:34:43;;;;;;;2.23;0.40;;;;;;;7.56;68.42;102876.28;10505498;28;20043;-80
2022/04/29 21:39:45;;;;;;;1.85;1.27;;;;;;;7.41;69.20;102882.94;10567072;28;20210;-80
2022/04/29 21:44:48;;;;;;;0.32;0.30;;;;;;;7.38;68.46;102880.16;10569301;28;20113;-80
2022/04/29 21:49:50;;;;;;;11.25;2.15;;;;;;;7.34;68.59;102878.13;10576318;28;20093;-80
2022/04/29 21:54:52;;;;;;;1.88;1.42;;;;;;;7.29;68.68;102881.28;10560098;28;20075;-79
2022/04/29 21:59:53;;;;;;;1.00;0.50;;;;;;;7.20;69.46;102875.47;10557241;28;20075;-79
2022/04/29 22:04:55;;;;;;;1.75;0.30;;;;;;;7.23;68.90;102875.72;10554672;28;20086;-80
2022/04/29 22:09:57;;;;;;;0.00;0.00;;;;;;;7.19;69.30;102878.81;10552859;28;20036;-80
2022/04/29 22:14:59;;;;;;;0.50;0.25;;;;;;;7.08;69.54;102879.72;10535070;28;20550;-76
2022/04/29 22:20:01;;;;;;;0.80;0.75;;;;;;;7.10;69.84;102878.19;10536704;28;20081;-76
2022/04/29 22:25:04;;;;;;;0.10;0.10;;;;;;;7.01;70.00;102880.06;10543381;28;20051;-77
2022/04/29 22:30:06;;;;;;;0.38;0.13;;;;;;;6.88;70.16;102891.09;10536769;28;20540;-77
2022/04/29 22:35:09;;;;;;;0.00;0.00;;;;;;;7.01;70.38;102887.75;10536557;28;20093;-77
2022/04/29 22:40:11;;;;;;;0.00;0.00;;;;;;;6.81;70.84;102885.53;10553386;28;20504;-76
2022/04/29 22:45:17;;;;;;;0.88;0.85;;;;;;;6.89;70.26;102880.94;10550577;28;20051;-76
2022/04/29 22:50:20;;;;;;;0.30;0.20;;;;;;;6.87;70.40;102885.09;10536530;28;20544;-75
2022/04/29 22:55:23;;;;;;;0.20;0.20;;;;;;;6.85;70.37;102881.53;10536277;28;20040;-75
2022/04/29 23:00:26;;;;;;;0.10;0.10;;;;;;;6.83;70.65;102877.94;10536178;28;20036;-76
2022/04/29 23:05:28;;;;;;;2.47;1.40;;;;;;;6.81;70.04;102879.53;10536788;28;20390;-76
2022/04/29 23:10:29;;;;;;;0.35;0.35;;;;;;;6.76;70.62;102879.19;10537701;28;20044;-76
2022/04/29 23:15:31;;;;;;;0.00;0.00;;;;;;;6.70;70.58;102876.19;10534753;28;20044;-76
2022/04/29 23:20:33;;;;;;;0.03;0.03;;;;;;;6.63;71.32;102873.91;10519229;28;20052;-76
2022/04/29 23:25:35;;;;;;;0.00;0.00;;;;;;;6.51;71.63;102871.38;10536854;28;20072;-76
2022/04/29 23:30:37;;;;;;;0.00;0.00;;;;;;;6.56;71.25;102872.59;10537362;28;20081;-76
2022/04/29 23:35:46;;;;;;;0.00;0.00;;;;;;;6.49;71.87;102867.78;10536358;28;20127;-76
2022/04/29 23:40:48;;;;;;;0.00;0.00;;;;;;;6.31;72.66;102870.75;10537679;28;20053;-75
2022/04/29 23:45:50;;;;;;;0.00;0.00;;;;;;;6.26;72.31;102866.06;10546143;28;20051;-76
2022/04/29 23:50:52;;;;;;;0.00;0.00;;;;;;;6.14;72.44;102871.19;10545646;28;20046;-76
2022/04/29 23:55:53;;;;;;;0.00;0.00;;;;;;;6.07;73.30;102874.03;10545868;28;20040;-76
